createdAt,value
2022-10-11T00:00:50.544Z,4.23
2022-10-11T00:03:20.598Z,3.17
2022-10-11T00:05:51.681Z,4.23
2022-10-11T00:08:21.738Z,2.83
2022-10-11T00:11:00.728Z,2.90
2022-10-11T00:13:33.395Z,2.77
2022-10-11T00:16:04.566Z,3.50
2022-10-11T00:18:34.819Z,3.10
2022-10-11T00:21:06.598Z,3.50
2022-10-11T00:23:37.176Z,3.13
2022-10-11T00:26:09.800Z,2.43
2022-10-11T00:28:43.998Z,2.57
2022-10-11T00:31:17.609Z,2.70
2022-10-11T00:33:47.584Z,2.80
2022-10-11T00:36:19.784Z,3.07
2022-10-11T00:38:49.805Z,2.70
2022-10-11T00:41:21.002Z,2.10
2022-10-11T00:44:16.477Z,1.93
2022-10-11T00:46:55.888Z,1.93
2022-10-11T00:49:36.204Z,1.83
2022-10-11T00:52:14.459Z,2.77
2022-10-11T00:54:48.215Z,2.40
2022-10-11T00:57:22.578Z,1.30
2022-10-11T00:59:57.966Z,1.97
2022-10-11T01:02:30.374Z,1.90
2022-10-11T01:05:18.298Z,2.43
2022-10-11T01:07:51.424Z,2.70
2022-10-11T01:10:21.823Z,2.30
2022-10-11T01:12:59.075Z,2.37
2022-10-11T01:15:38.993Z,2.47
2022-10-11T01:18:18.084Z,2.63
2022-10-11T01:20:57.244Z,2.70
2022-10-11T01:23:55.060Z,3.17
2022-10-11T01:26:52.846Z,2.70
2022-10-11T01:29:33.342Z,2.20
2022-10-11T01:32:15.638Z,3.63
2022-10-11T01:34:56.248Z,3.40
2022-10-11T01:37:33.561Z,4.70
2022-10-11T01:40:08.475Z,4.40
2022-10-11T01:42:41.566Z,4.07
2022-10-11T01:45:16.949Z,4.20
2022-10-11T01:47:49.623Z,4.20
2022-10-11T01:50:41.132Z,3.80
2022-10-11T01:53:33.881Z,4.27
2022-10-11T01:56:12.841Z,4.40
2022-10-11T01:58:58.124Z,4.20
2022-10-11T02:01:37.739Z,4.50
2022-10-11T02:04:19.627Z,5.50
2022-10-11T02:06:57.606Z,4.83
2022-10-11T02:09:33.351Z,4.50
2022-10-11T02:12:08.399Z,4.87
2022-10-11T02:14:42.156Z,4.97
2022-10-11T02:17:15.896Z,4.67
2022-10-11T02:19:52.872Z,4.10
2022-10-11T02:22:27.734Z,4.23
2022-10-11T02:25:00.750Z,4.10
2022-10-11T02:27:34.565Z,4.10
2022-10-11T02:30:08.316Z,4.47
2022-10-11T02:32:42.908Z,3.63
2022-10-11T02:35:16.635Z,5.07
2022-10-11T02:37:53.103Z,4.00
2022-10-11T02:40:30.733Z,4.87
2022-10-11T02:43:04.877Z,4.10
2022-10-11T02:45:39.250Z,5.13
2022-10-11T02:48:11.352Z,3.80
2022-10-11T02:50:45.171Z,4.10
2022-10-11T02:53:15.097Z,4.03
2022-10-11T02:55:48.530Z,3.67
2022-10-11T02:58:18.547Z,4.60
2022-10-11T03:00:49.248Z,4.20
2022-10-11T03:03:19.358Z,3.30
2022-10-11T03:05:52.796Z,4.63
2022-10-11T03:08:22.714Z,4.00
2022-10-11T03:10:53.394Z,3.80
2022-10-11T03:13:23.769Z,4.33
2022-10-11T03:16:02.853Z,3.80
2022-10-11T03:18:34.050Z,3.73
2022-10-11T03:21:07.512Z,4.30
2022-10-11T03:23:37.896Z,3.40
2022-10-11T03:26:09.181Z,4.27
2022-10-11T03:28:39.406Z,4.30
2022-10-11T03:31:09.947Z,3.40
2022-10-11T03:33:40.937Z,3.80
2022-10-11T03:36:15.011Z,3.47
2022-10-11T03:38:45.061Z,3.10
2022-10-11T03:41:15.326Z,2.83
2022-10-11T03:43:47.133Z,3.00
2022-10-11T03:46:18.478Z,2.60
2022-10-11T03:48:48.429Z,2.20
2022-10-11T03:51:21.532Z,2.50
2022-10-11T03:53:51.621Z,2.13
2022-10-11T03:56:22.013Z,2.10
2022-10-11T03:58:51.917Z,2.80
2022-10-11T04:01:22.661Z,2.93
2022-10-11T04:03:52.601Z,3.63
2022-10-11T04:06:25.580Z,3.00
2022-10-11T04:08:55.520Z,2.00
2022-10-11T04:11:26.029Z,1.90
2022-10-11T04:13:56.942Z,1.70
2022-10-11T04:16:27.381Z,1.77
2022-10-11T04:18:57.312Z,2.00
2022-10-11T04:21:31.787Z,2.10
2022-10-11T04:24:01.956Z,2.43
2022-10-11T04:26:32.577Z,2.00
2022-10-11T04:29:02.587Z,2.20
2022-10-11T04:31:33.198Z,2.37
2022-10-11T04:36:50.005Z,2.00
2022-10-11T04:39:20.574Z,2.07
2022-10-11T04:41:50.451Z,2.07
2022-10-11T04:44:21.415Z,2.70
2022-10-11T04:46:53.163Z,2.10
2022-10-11T04:49:23.473Z,3.10
2022-10-11T04:51:56.348Z,2.33
2022-10-11T04:54:26.428Z,1.87
2022-10-11T04:56:56.649Z,3.70
2022-10-11T04:59:26.766Z,3.70
2022-10-11T05:01:57.066Z,3.90
2022-10-11T05:04:27.040Z,3.73
2022-10-11T05:06:59.602Z,4.00
2022-10-11T05:09:29.689Z,4.90
2022-10-11T05:11:59.729Z,5.50
2022-10-11T05:14:29.605Z,5.10
2022-10-11T05:16:59.735Z,5.93
2022-10-11T05:19:29.655Z,4.20
2022-10-11T05:22:02.884Z,5.93
2022-10-11T05:24:32.746Z,6.27
2022-10-11T05:27:03.633Z,6.40
2022-10-11T05:29:33.914Z,4.43
2022-10-11T05:32:04.848Z,5.60
2022-10-11T05:34:34.743Z,5.40
2022-10-11T05:37:07.641Z,4.43
2022-10-11T05:39:37.527Z,5.90
2022-10-11T05:42:10.016Z,6.53
2022-10-11T05:44:40.195Z,5.30
2022-10-11T05:47:10.722Z,5.23
2022-10-11T05:49:41.007Z,4.10
2022-10-11T05:52:20.060Z,4.77
2022-10-11T05:54:50.086Z,5.10
2022-10-11T05:57:20.248Z,4.97
2022-10-11T05:59:50.116Z,4.10
2022-10-11T06:02:20.073Z,4.50
2022-10-11T06:04:50.167Z,4.07
2022-10-11T06:07:22.966Z,4.43
2022-10-11T06:09:54.209Z,3.57
2022-10-11T06:12:24.437Z,4.30
2022-10-11T06:14:54.319Z,4.10
2022-10-11T06:17:27.471Z,3.40
2022-10-11T06:19:57.439Z,4.20
2022-10-11T06:22:30.216Z,3.70
2022-10-11T06:25:00.081Z,3.70
2022-10-11T06:27:30.602Z,4.60
2022-10-11T06:30:00.989Z,3.80
2022-10-11T06:32:32.557Z,3.47
2022-10-11T06:35:03.479Z,3.10
2022-10-11T06:37:36.927Z,3.37
2022-10-11T06:40:07.695Z,3.30
2022-10-11T06:42:38.245Z,2.20
2022-10-11T06:45:09.361Z,2.83
2022-10-11T06:47:39.637Z,2.77
2022-10-11T06:50:10.261Z,2.67
2022-10-11T06:52:42.942Z,3.17
2022-10-11T06:55:12.899Z,2.57
2022-10-11T06:57:43.512Z,2.90
2022-10-11T07:00:15.022Z,2.83
2022-10-11T07:02:45.897Z,2.40
2022-10-11T07:05:15.781Z,2.77
2022-10-11T07:07:48.899Z,3.13
2022-10-11T07:10:19.185Z,2.60
2022-10-11T07:12:49.817Z,2.80
2022-10-11T07:15:19.849Z,2.90
2022-10-11T07:17:50.128Z,3.80
2022-10-11T07:20:20.149Z,3.00
2022-10-11T07:22:54.239Z,3.10
2022-10-11T07:25:24.149Z,2.87
2022-10-11T07:27:54.209Z,2.60
2022-10-11T07:30:24.268Z,2.90
2022-10-11T07:32:54.909Z,2.50
2022-10-11T07:35:24.878Z,2.43
2022-10-11T07:37:58.382Z,3.00
2022-10-11T07:40:28.324Z,2.30
2022-10-11T07:42:58.497Z,2.70
2022-10-11T07:45:29.062Z,2.40
2022-10-11T07:48:00.100Z,2.10
2022-10-11T07:50:30.041Z,3.13
2022-10-11T07:53:04.452Z,2.80
2022-10-11T07:55:40.220Z,3.70
2022-10-11T07:58:10.974Z,3.30
2022-10-11T08:00:43.653Z,3.20
2022-10-11T08:03:15.373Z,2.77
2022-10-11T08:05:45.757Z,3.80
2022-10-11T08:08:19.330Z,4.00
2022-10-11T08:10:49.284Z,3.30
2022-10-11T08:13:20.216Z,3.83
2022-10-11T08:15:50.093Z,3.60
2022-10-11T08:18:20.782Z,4.00
2022-10-11T08:20:50.769Z,3.50
2022-10-11T08:23:23.597Z,4.10
2022-10-11T08:25:58.584Z,3.97
2022-10-11T08:28:29.087Z,4.77
2022-10-11T08:30:59.234Z,3.60
2022-10-11T08:33:29.938Z,4.90
2022-10-11T08:36:00.368Z,6.07
2022-10-11T08:38:33.220Z,5.97
2022-10-11T08:41:04.397Z,6.57
2022-10-11T08:43:47.351Z,5.77
2022-10-11T08:46:19.544Z,6.60
2022-10-11T08:48:52.404Z,6.50
2022-10-11T08:51:27.754Z,5.87
2022-10-11T08:54:07.869Z,6.23
2022-10-11T08:56:40.613Z,6.40
2022-10-11T08:59:23.805Z,7.20
2022-10-11T09:02:02.078Z,14.87
2022-10-11T09:04:32.450Z,9.43
2022-10-11T09:07:09.506Z,6.97
2022-10-11T09:10:06.016Z,6.93
2022-10-11T09:12:49.313Z,6.30
2022-10-11T09:15:26.301Z,6.87
2022-10-11T09:18:22.029Z,5.40
2022-10-11T09:21:14.378Z,6.10
2022-10-11T09:24:26.456Z,5.87
2022-10-11T09:27:02.267Z,6.00
2022-10-11T09:29:48.827Z,4.83
2022-10-11T09:32:21.629Z,4.20
2022-10-11T09:34:58.440Z,4.80
2022-10-11T09:37:34.004Z,5.70
2022-10-11T09:40:09.945Z,5.40
2022-10-11T09:42:42.667Z,5.63
2022-10-11T09:45:19.302Z,4.70
2022-10-11T09:47:51.446Z,6.10
2022-10-11T09:50:25.866Z,5.60
2022-10-11T09:52:58.670Z,6.93
2022-10-11T09:55:43.044Z,7.03
2022-10-11T09:58:33.484Z,4.53
2022-10-11T10:01:08.196Z,5.50
2022-10-11T10:03:39.971Z,5.17
2022-10-11T10:06:16.662Z,5.40
2022-10-11T10:08:47.665Z,4.67
2022-10-11T10:11:18.771Z,4.60
2022-10-11T10:13:53.514Z,5.83
2022-10-11T10:16:26.615Z,5.00
2022-10-11T10:18:58.585Z,3.83
2022-10-11T10:21:33.029Z,3.83
2022-10-11T10:24:07.713Z,3.63
2022-10-11T10:26:40.370Z,3.80
2022-10-11T10:29:21.185Z,4.63
2022-10-11T10:32:14.686Z,3.40
2022-10-11T10:35:09.509Z,3.07
2022-10-11T10:37:46.758Z,3.50
2022-10-11T10:40:21.430Z,3.60
2022-10-11T10:42:52.689Z,2.73
2022-10-11T10:45:35.223Z,2.93
2022-10-11T10:48:15.580Z,3.30
2022-10-11T10:50:52.837Z,3.03
2022-10-11T10:53:32.676Z,2.63
2022-10-11T10:56:09.110Z,3.03
2022-10-11T10:58:58.989Z,2.50
2022-10-11T11:01:35.467Z,2.67
2022-10-11T11:04:12.928Z,2.97
2022-10-11T11:06:52.537Z,2.50
2022-10-11T11:09:32.195Z,2.83
2022-10-11T11:12:14.868Z,3.00
2022-10-11T11:14:52.331Z,2.70
2022-10-11T11:17:34.007Z,2.00
2022-10-11T11:20:18.054Z,2.23
2022-10-11T11:22:55.401Z,1.67
2022-10-11T11:25:33.456Z,2.57
2022-10-11T11:28:16.310Z,2.63
2022-10-11T11:30:58.408Z,2.60
2022-10-11T11:33:47.912Z,2.60
2022-10-11T11:36:26.537Z,2.60
2022-10-11T11:39:01.373Z,3.53
2022-10-11T11:41:37.489Z,3.00
2022-10-11T11:44:12.404Z,2.90
2022-10-11T11:46:47.432Z,2.20
2022-10-11T11:49:24.416Z,2.40
2022-10-11T11:51:56.126Z,2.20
2022-10-11T11:54:37.619Z,3.40
2022-10-11T11:57:16.100Z,3.17
2022-10-11T11:59:52.726Z,2.23
2022-10-11T12:02:42.575Z,2.73
2022-10-11T12:05:17.420Z,2.27
2022-10-11T12:07:58.971Z,2.90
2022-10-11T12:10:39.688Z,2.57
2022-10-11T12:13:22.483Z,1.90
2022-10-11T12:16:13.009Z,2.50
2022-10-11T12:18:57.081Z,1.80
2022-10-11T12:21:34.618Z,2.33
2022-10-11T12:24:14.690Z,1.87
2022-10-11T12:26:46.311Z,2.00
2022-10-11T12:29:50.207Z,1.53
2022-10-11T12:32:50.147Z,1.90
2022-10-11T12:35:50.250Z,2.40
2022-10-11T12:38:26.216Z,1.63
2022-10-11T12:40:57.559Z,1.63
2022-10-11T12:43:36.468Z,1.90
2022-10-11T12:46:41.367Z,2.63
2022-10-11T12:49:45.671Z,1.83
2022-10-11T12:52:31.688Z,1.67
2022-10-11T12:55:31.659Z,1.73
2022-10-11T12:58:25.880Z,2.93
2022-10-11T13:01:13.050Z,1.80
2022-10-11T13:03:45.793Z,1.73
2022-10-11T13:06:20.946Z,1.40
2022-10-11T13:08:57.376Z,2.10
2022-10-11T13:11:33.476Z,1.60
2022-10-11T13:14:08.907Z,2.13
2022-10-11T13:16:53.300Z,1.60
2022-10-11T13:19:25.824Z,3.10
2022-10-11T13:21:58.261Z,2.63
2022-10-11T13:24:32.344Z,1.47
2022-10-11T13:27:06.387Z,1.70
2022-10-11T13:29:38.930Z,1.30
2022-10-11T13:32:14.079Z,1.50
2022-10-11T13:34:47.282Z,1.80
2022-10-11T13:37:21.132Z,1.53
2022-10-11T13:39:53.593Z,1.70
2022-10-11T13:42:32.489Z,2.03
2022-10-11T13:45:04.068Z,1.50
2022-10-11T13:47:36.044Z,1.67
2022-10-11T13:50:13.992Z,2.23
2022-10-11T13:52:57.278Z,1.30
2022-10-11T13:55:33.198Z,1.83
2022-10-11T13:58:18.397Z,1.80
2022-10-11T14:00:57.653Z,2.10
2022-10-11T14:03:40.327Z,1.53
2022-10-11T14:06:10.726Z,1.67
2022-10-11T14:08:46.408Z,1.97
2022-10-11T14:11:17.966Z,1.60
2022-10-11T14:13:51.685Z,1.57
2022-10-11T14:16:33.009Z,1.70
2022-10-11T14:19:12.454Z,1.23
2022-10-11T14:21:53.755Z,1.40
2022-10-11T14:24:24.970Z,2.23
2022-10-11T14:26:58.177Z,1.83
2022-10-11T14:29:33.958Z,1.30
2022-10-11T14:32:06.834Z,1.37
2022-10-11T14:34:37.638Z,0.97
2022-10-11T14:37:07.624Z,2.10
2022-10-11T14:39:38.043Z,2.40
2022-10-11T14:42:09.370Z,1.67
2022-10-11T14:44:42.337Z,1.20
2022-10-11T14:47:18.217Z,1.30
2022-10-11T14:49:49.069Z,1.60
2022-10-11T14:52:18.936Z,1.33
2022-10-11T14:54:49.196Z,2.03
2022-10-11T14:57:19.141Z,1.63
2022-10-11T14:59:51.875Z,1.50
2022-10-11T15:02:21.762Z,1.37
2022-10-11T15:04:52.283Z,2.23
2022-10-11T15:07:22.168Z,1.70
2022-10-11T15:09:52.342Z,1.47
2022-10-11T15:12:22.239Z,2.07
2022-10-11T15:14:55.453Z,1.70
2022-10-11T15:17:25.367Z,2.07
2022-10-11T15:19:55.251Z,1.67
2022-10-11T15:22:25.225Z,1.50
2022-10-11T15:24:55.151Z,2.17
2022-10-11T15:27:28.711Z,1.80
2022-10-11T15:30:01.815Z,1.40
2022-10-11T15:32:32.317Z,1.63
2022-10-11T15:35:02.270Z,2.00
2022-10-11T15:37:36.519Z,2.90
2022-10-11T15:40:17.761Z,1.90
2022-10-11T15:42:48.533Z,2.30
2022-10-11T15:45:22.435Z,1.90
2022-10-11T15:47:52.738Z,1.60
2022-10-11T15:50:37.488Z,2.00
2022-10-11T15:53:10.399Z,1.43
2022-10-11T15:55:42.416Z,2.10
2022-10-11T15:58:16.740Z,1.50
2022-10-11T16:00:50.954Z,1.63
2022-10-11T16:03:21.626Z,1.77
2022-10-11T16:05:52.190Z,2.07
2022-10-11T16:08:22.901Z,1.90
2022-10-11T16:10:53.277Z,1.50
2022-10-11T16:13:23.795Z,2.00
2022-10-11T16:15:56.322Z,1.90
2022-10-11T16:18:29.141Z,1.50
2022-10-11T16:21:03.468Z,2.50
2022-10-11T16:23:34.403Z,1.43
2022-10-11T16:26:06.388Z,1.43
2022-10-11T16:28:38.079Z,2.07
2022-10-11T16:31:18.079Z,1.33
2022-10-11T16:33:49.074Z,1.57
2022-10-11T16:36:40.764Z,1.33
2022-10-11T16:39:16.033Z,1.93
2022-10-11T16:41:46.178Z,1.67
2022-10-11T16:44:18.573Z,1.60
2022-10-11T16:46:52.170Z,1.70
2022-10-11T16:49:26.673Z,1.70
2022-10-11T16:51:59.081Z,2.00
2022-10-11T16:54:30.448Z,3.60
2022-10-11T16:57:00.969Z,3.63
2022-10-11T16:59:31.107Z,2.90
2022-10-11T17:02:05.214Z,1.80
2022-10-11T17:04:36.083Z,1.80
2022-10-11T17:07:12.307Z,3.30
2022-10-11T17:09:44.271Z,2.23
2022-10-11T17:12:17.268Z,2.47
2022-10-11T17:14:49.707Z,1.70
2022-10-11T17:17:23.084Z,2.10
2022-10-11T17:19:53.314Z,1.80
2022-10-11T17:22:23.336Z,2.00
2022-10-11T17:24:53.215Z,2.83
2022-10-11T17:27:23.494Z,2.03
2022-10-11T17:29:53.521Z,2.27
2022-10-11T17:32:26.256Z,2.60
2022-10-11T17:34:57.439Z,2.10
2022-10-11T17:37:27.744Z,2.77
2022-10-11T17:39:58.059Z,3.00
2022-10-11T17:42:28.940Z,2.90
2022-10-11T17:44:58.833Z,2.50
2022-10-11T17:47:31.759Z,2.47
2022-10-11T17:50:01.746Z,3.13
2022-10-11T17:52:32.214Z,2.40
2022-10-11T17:55:02.410Z,3.93
2022-10-11T17:57:32.362Z,2.73
2022-10-11T18:00:03.893Z,2.70
2022-10-11T18:02:38.630Z,3.40
2022-10-11T18:05:10.130Z,4.10
2022-10-11T18:07:40.032Z,2.50
2022-10-11T18:10:10.815Z,2.50
2022-10-11T18:12:40.872Z,2.70
2022-10-11T18:15:12.224Z,3.63
2022-10-11T18:17:44.761Z,2.63
2022-10-11T18:20:15.130Z,3.17
2022-10-11T18:22:45.362Z,2.70
2022-10-11T18:25:15.296Z,2.67
2022-10-11T18:27:45.696Z,3.90
2022-10-11T18:30:15.809Z,2.77
2022-10-11T18:32:48.514Z,3.50
2022-10-11T18:35:18.585Z,3.97
2022-10-11T18:37:48.908Z,3.40
2022-10-11T18:40:18.948Z,3.80
2022-10-11T18:42:48.989Z,3.93
2022-10-11T18:45:19.045Z,3.53
2022-10-11T18:47:53.073Z,3.07
2022-10-11T18:50:23.067Z,4.20
2022-10-11T18:52:53.406Z,3.17
2022-10-11T18:55:23.374Z,3.07
2022-10-11T18:57:53.897Z,3.47
2022-10-11T19:00:40.095Z,3.47
2022-10-11T19:03:14.042Z,2.30
2022-10-11T19:05:43.929Z,2.70
2022-10-11T19:08:14.732Z,2.50
2022-10-11T19:10:44.730Z,2.80
2022-10-11T19:13:14.865Z,2.30
2022-10-11T19:15:44.831Z,7.27
2022-10-11T19:18:20.456Z,3.17
2022-10-11T19:20:50.650Z,3.10
2022-10-11T19:23:20.738Z,3.07
2022-10-11T19:25:50.642Z,5.17
2022-10-11T19:28:21.084Z,5.07
2022-10-11T19:30:51.088Z,4.17
2022-10-11T19:33:23.823Z,3.80
2022-10-11T19:35:57.273Z,5.17
2022-10-11T19:38:28.144Z,3.70
2022-10-11T19:40:58.221Z,3.40
2022-10-11T19:43:28.791Z,4.07
2022-10-11T19:46:02.995Z,3.53
2022-10-11T19:48:38.601Z,2.90
2022-10-11T19:51:11.666Z,3.53
2022-10-11T19:53:42.271Z,3.80
2022-10-11T19:56:14.313Z,3.00
2022-10-11T19:58:44.770Z,2.90
2022-10-11T20:01:17.041Z,3.10
2022-10-11T20:03:51.717Z,2.07
2022-10-11T20:06:23.319Z,2.10
2022-10-11T20:09:16.798Z,2.20
2022-10-11T20:11:44.827Z,2.40
2022-10-11T20:14:15.462Z,2.50
2022-10-11T20:16:45.357Z,2.40
2022-10-11T20:19:18.241Z,2.00
2022-10-11T20:21:48.236Z,2.57
2022-10-11T20:24:18.833Z,2.30
2022-10-11T20:26:48.698Z,2.10
2022-10-11T20:29:19.312Z,2.73
2022-10-11T20:31:49.312Z,3.20
2022-10-11T20:34:21.893Z,2.33
2022-10-11T20:36:52.316Z,2.67
2022-10-11T20:39:23.954Z,1.70
2022-10-11T20:41:53.924Z,2.33
2022-10-11T20:44:24.593Z,2.33
2022-10-11T20:46:54.515Z,2.27
2022-10-11T20:49:28.282Z,2.47
2022-10-11T20:51:58.193Z,2.50
2022-10-11T20:54:30.228Z,1.90
2022-10-11T20:57:00.674Z,2.20
2022-10-11T20:59:31.794Z,1.83
2022-10-11T21:02:01.712Z,3.57
2022-10-11T21:04:35.179Z,2.73
2022-10-11T21:07:05.073Z,3.23
2022-10-11T21:09:36.065Z,2.70
2022-10-11T21:12:06.161Z,3.50
2022-10-11T21:14:36.604Z,3.63
2022-10-11T21:17:06.555Z,3.70
2022-10-11T21:19:40.489Z,3.60
2022-10-11T21:22:10.523Z,3.30
2022-10-11T21:24:40.702Z,3.23
2022-10-11T21:27:10.635Z,3.63
2022-10-11T21:29:41.424Z,3.93
2022-10-11T21:32:14.353Z,3.20
2022-10-11T21:34:47.550Z,2.97
2022-10-11T21:37:17.595Z,2.67
2022-10-11T21:39:48.722Z,2.33
2022-10-11T21:42:18.746Z,1.90
2022-10-11T21:44:49.319Z,2.30
2022-10-11T21:47:19.406Z,1.33
2022-10-11T21:49:52.671Z,2.17
2022-10-11T21:52:22.591Z,3.07
2022-10-11T21:54:52.724Z,2.03
2022-10-11T21:57:22.808Z,2.33
2022-10-11T21:59:52.767Z,2.00
2022-10-11T22:02:23.180Z,2.03
2022-10-11T22:04:56.491Z,1.90
2022-10-11T22:07:26.430Z,2.27
2022-10-11T22:09:57.388Z,1.53
2022-10-11T22:12:27.328Z,2.10
2022-10-11T22:14:57.969Z,1.43
2022-10-11T22:17:28.506Z,1.97
2022-10-11T22:20:02.233Z,1.47
2022-10-11T22:22:32.234Z,1.63
2022-10-11T22:25:02.430Z,1.00
2022-10-11T22:27:32.594Z,1.00
2022-10-11T22:30:02.971Z,1.60
2022-10-11T22:32:33.097Z,1.80
2022-10-11T22:35:06.190Z,1.00
2022-10-11T22:37:37.251Z,1.93
2022-10-11T22:40:08.571Z,1.33
2022-10-11T22:42:38.468Z,1.43
2022-10-11T22:45:10.552Z,1.17
2022-10-11T22:47:40.461Z,1.37
2022-10-11T22:50:14.253Z,1.80
2022-10-11T22:52:44.137Z,2.00
2022-10-11T22:55:19.780Z,2.07
2022-10-11T22:57:50.060Z,1.40
2022-10-11T23:00:21.761Z,1.73
2022-10-11T23:02:51.654Z,0.97
2022-10-11T23:05:25.146Z,1.57
2022-10-11T23:07:55.039Z,1.10
2022-10-11T23:10:25.707Z,1.83
2022-10-11T23:12:55.630Z,1.83
2022-10-11T23:15:26.063Z,2.87
2022-10-11T23:17:55.985Z,1.83
2022-10-11T23:20:29.761Z,1.60
2022-10-11T23:22:59.647Z,2.13
2022-10-11T23:25:30.295Z,2.50
2022-10-11T23:28:02.619Z,2.37
2022-10-11T23:30:33.336Z,2.70
2022-10-11T23:33:03.219Z,3.40
2022-10-11T23:35:37.697Z,2.70
2022-10-11T23:38:07.581Z,2.73
2022-10-11T23:40:38.066Z,2.17
2022-10-11T23:43:08.436Z,2.67
2022-10-11T23:45:38.878Z,2.10
2022-10-11T23:48:09.088Z,1.93
2022-10-11T23:50:42.895Z,1.80
2022-10-11T23:53:13.773Z,2.67
2022-10-11T23:55:45.094Z,2.70
2022-10-11T23:58:14.972Z,1.50
